createdAt,value
2017-05-20T00:00:57.488Z,78.7
2017-05-20T00:02:06.811Z,79.94
2017-05-20T00:03:17.077Z,78.89
2017-05-20T00:04:27.349Z,78.7
2017-05-20T00:05:37.306Z,78.31
2017-05-20T00:06:46.950Z,77.94
2017-05-20T00:07:57.213Z,78.89
2017-05-20T00:09:07.167Z,78.79
2017-05-20T00:10:17.438Z,79.17
2017-05-20T00:11:27.381Z,79.94
2017-05-20T00:12:37.644Z,80.32
2017-05-20T00:13:47.604Z,79.56
2017-05-20T00:14:57.241Z,80.57
2017-05-20T00:16:07.510Z,80.04
2017-05-20T00:17:17.144Z,80.32
2017-05-20T00:18:27.424Z,80.85
2017-05-20T00:19:37.381Z,79.71
2017-05-20T00:20:47.341Z,80.38
2017-05-20T00:21:59.603Z,81.04
2017-05-20T00:23:09.550Z,80.99
2017-05-20T00:24:19.824Z,80.95
2017-05-20T00:25:29.458Z,80.66
2017-05-20T00:26:39.411Z,81.71
2017-05-20T00:27:49.359Z,81.33
2017-05-20T00:28:59.317Z,81.62
2017-05-20T00:30:09.269Z,81.52
2017-05-20T00:31:18.600Z,81.52
2017-05-20T00:32:28.552Z,81.04
2017-05-20T00:33:38.816Z,82.09
2017-05-20T00:34:49.077Z,82
2017-05-20T00:35:59.033Z,82.57
2017-05-20T00:37:09.312Z,82.48
2017-05-20T00:38:18.950Z,82.76
2017-05-20T00:39:28.904Z,82.48
2017-05-20T00:40:38.851Z,82.38
2017-05-20T00:41:48.812Z,82.57
2017-05-20T00:42:58.136Z,81.33
2017-05-20T00:44:08.088Z,80.28
2017-05-20T00:45:18.353Z,80.76
2017-05-20T00:46:28.615Z,80.66
2017-05-20T00:47:38.571Z,79.9
2017-05-20T00:48:48.844Z,79.99
2017-05-20T00:49:58.794Z,79.52
2017-05-20T00:51:08.745Z,79.9
2017-05-20T00:52:18.384Z,80.09
2017-05-20T00:53:28.655Z,79.9
2017-05-20T00:54:38.924Z,80.38
2017-05-20T00:55:48.875Z,80.76
2017-05-20T00:56:58.826Z,81.24
2017-05-20T00:58:08.464Z,82.29
2017-05-20T00:59:18.418Z,83.14
2017-05-20T01:00:28.684Z,83.05
2017-05-20T01:01:38.951Z,82.86
2017-05-20T01:02:48.903Z,82.67
2017-05-20T01:03:58.864Z,83.72
2017-05-20T01:05:08.828Z,83.14
2017-05-20T01:06:19.091Z,81.9
2017-05-20T01:07:29.358Z,80.76
2017-05-20T01:08:39.626Z,80.76
2017-05-20T01:09:49.894Z,80.76
2017-05-20T01:10:59.844Z,80.85
2017-05-20T01:12:09.480Z,80.85
2017-05-20T01:13:19.746Z,80.95
2017-05-20T01:14:30.017Z,80.47
2017-05-20T01:15:39.655Z,80.66
2017-05-20T01:16:49.608Z,81.04
2017-05-20T01:17:59.246Z,80.85
2017-05-20T01:19:09.507Z,80.85
2017-05-20T01:20:19.457Z,80.28
2017-05-20T01:21:29.403Z,79.61
2017-05-20T01:22:39.667Z,79.23
2017-05-20T01:23:49.620Z,80.28
2017-05-20T01:24:59.256Z,80.28
2017-05-20T01:26:09.210Z,79.23
2017-05-20T01:27:19.471Z,79.52
2017-05-20T01:28:29.424Z,79.99
2017-05-20T01:29:39.692Z,80.09
2017-05-20T01:30:49.640Z,79.23
2017-05-20T01:31:59.906Z,80.09
2017-05-20T01:33:09.542Z,79.71
2017-05-20T01:34:19.862Z,79.43
2017-05-20T01:35:30.194Z,79.14
2017-05-20T01:36:40.144Z,79.61
2017-05-20T01:37:50.090Z,78.66
2017-05-20T01:38:59.727Z,78.85
2017-05-20T01:40:09.686Z,78.56
2017-05-20T01:41:19.637Z,79.04
2017-05-20T01:42:29.278Z,78.85
2017-05-20T01:43:40.606Z,78.75
2017-05-20T01:44:50.566Z,78.94
2017-05-20T01:46:00.210Z,78.75
2017-05-20T01:47:10.166Z,78.28
2017-05-20T01:48:20.114Z,78.85
2017-05-20T01:49:30.378Z,78.37
2017-05-20T01:50:40.009Z,77.89
2017-05-20T01:51:49.965Z,77.7
2017-05-20T01:52:59.918Z,77.61
2017-05-20T01:54:09.872Z,77.99
2017-05-20T01:55:19.827Z,78.94
2017-05-20T01:56:30.083Z,78.66
2017-05-20T01:57:40.350Z,78.37
2017-05-20T01:58:50.629Z,78.56
2017-05-20T02:00:00.894Z,79.33
2017-05-20T02:01:09.909Z,79.04
2017-05-20T02:02:19.858Z,79.33
2017-05-20T02:03:30.125Z,79.43
2017-05-20T02:04:40.396Z,79.71
2017-05-20T02:05:50.666Z,79.52
2017-05-20T02:07:00.307Z,79.14
2017-05-20T02:08:10.262Z,79.43
2017-05-20T02:09:20.528Z,79.71
2017-05-20T02:10:30.792Z,79.99
2017-05-20T02:11:40.746Z,79.23
2017-05-20T02:12:51.009Z,78.81
2017-05-20T02:14:00.333Z,78.81
2017-05-20T02:15:10.280Z,78.72
2017-05-20T02:16:20.232Z,79.33
2017-05-20T02:17:30.501Z,80.05
2017-05-20T02:18:40.769Z,80.09
2017-05-20T02:19:51.048Z,78.52
2017-05-20T02:21:01.009Z,78.81
2017-05-20T02:22:10.963Z,78.23
2017-05-20T02:23:21.231Z,78.33
2017-05-20T02:24:31.494Z,79.28
2017-05-20T02:25:41.451Z,80.19
2017-05-20T02:26:51.395Z,79.96
2017-05-20T02:28:01.724Z,80.53
2017-05-20T02:29:11.994Z,79.86
2017-05-20T02:30:22.255Z,80.05
2017-05-20T02:31:32.201Z,79.57
2017-05-20T02:32:41.836Z,80.76
2017-05-20T02:33:52.105Z,80.53
2017-05-20T02:35:02.110Z,80.53
2017-05-20T02:36:12.064Z,80.53
2017-05-20T02:37:22.012Z,80.33
2017-05-20T02:38:32.282Z,80.72
2017-05-20T02:39:42.252Z,80.62
2017-05-20T02:40:52.210Z,80.81
2017-05-20T02:42:02.472Z,80.81
2017-05-20T02:43:12.112Z,81.67
2017-05-20T02:44:22.070Z,81.2
2017-05-20T02:45:32.029Z,81.01
2017-05-20T02:46:41.983Z,80.62
2017-05-20T02:47:52.249Z,80.05
2017-05-20T02:49:02.204Z,80.53
2017-05-20T02:50:12.470Z,80.81
2017-05-20T02:51:22.423Z,80.91
2017-05-20T02:52:32.687Z,80.81
2017-05-20T02:53:42.650Z,80.81
2017-05-20T02:54:52.605Z,80.81
2017-05-20T02:56:02.871Z,80.81
2017-05-20T02:57:12.823Z,80.72
2017-05-20T02:58:23.091Z,80.91
2017-05-20T02:59:33.045Z,80.91
2017-05-20T03:00:43.308Z,80.43
2017-05-20T03:01:53.583Z,80.38
2017-05-20T03:03:03.217Z,79.96
2017-05-20T03:04:13.485Z,80.05
2017-05-20T03:05:23.748Z,80.05
2017-05-20T03:06:34.004Z,79.86
2017-05-20T03:07:44.267Z,80.24
2017-05-20T03:08:54.222Z,80.05
2017-05-20T03:10:04.487Z,79.71
2017-05-20T03:11:14.442Z,79.61
2017-05-20T03:12:24.702Z,79.61
2017-05-20T03:13:34.655Z,79.61
2017-05-20T03:14:44.612Z,79.61
2017-05-20T03:15:54.876Z,79.71
2017-05-20T03:17:05.140Z,79.8
2017-05-20T03:18:15.085Z,79.71
2017-05-20T03:19:25.358Z,79.52
2017-05-20T03:20:35.632Z,80.19
2017-05-20T03:21:45.590Z,80.19
2017-05-20T03:22:55.859Z,79.52
2017-05-20T03:24:05.506Z,80.28
2017-05-20T03:25:15.465Z,80.76
2017-05-20T03:26:25.787Z,80.19
2017-05-20T03:27:35.798Z,80.66
2017-05-20T03:28:46.071Z,80.62
2017-05-20T03:29:56.026Z,81.52
2017-05-20T03:31:06.346Z,81.33
2017-05-20T03:32:16.612Z,82.72
2017-05-20T03:33:26.563Z,82.72
2017-05-20T03:34:36.824Z,82.29
2017-05-20T03:35:46.774Z,81.48
2017-05-20T03:36:56.413Z,81.1
2017-05-20T03:38:06.681Z,81.01
2017-05-20T03:39:16.638Z,80.66
2017-05-20T03:40:26.592Z,80.47
2017-05-20T03:41:36.849Z,79.86
2017-05-20T03:42:46.175Z,79.9
2017-05-20T03:43:56.136Z,79.67
2017-05-20T03:45:05.777Z,79.23
2017-05-20T03:46:16.040Z,79.04
2017-05-20T03:47:25.988Z,78.85
2017-05-20T03:48:35.936Z,78.75
2017-05-20T03:49:45.293Z,78.91
2017-05-20T03:50:54.935Z,78.62
2017-05-20T03:52:05.252Z,79.38
2017-05-20T03:53:15.204Z,78.85
2017-05-20T03:54:25.167Z,79.19
2017-05-20T03:55:35.429Z,79.33
2017-05-20T03:56:45.382Z,79.19
2017-05-20T03:57:55.022Z,79.77
2017-05-20T03:59:05.290Z,79.33
2017-05-20T04:00:15.240Z,79.04
2017-05-20T04:01:25.507Z,79.43
2017-05-20T04:02:35.452Z,79.52
2017-05-20T04:03:45.407Z,79.52
2017-05-20T04:04:55.070Z,79.52
2017-05-20T04:06:05.338Z,79.23
2017-05-20T04:07:15.293Z,79.9
2017-05-20T04:08:25.245Z,79.61
2017-05-20T04:09:35.516Z,79.8
2017-05-20T04:10:45.460Z,80.19
2017-05-20T04:11:55.099Z,80.76
2017-05-20T04:13:05.367Z,80.76
2017-05-20T04:14:15.005Z,80.24
2017-05-20T04:15:24.953Z,79.96
2017-05-20T04:16:34.973Z,80.43
2017-05-20T04:17:45.244Z,79.77
2017-05-20T04:18:55.205Z,78.94
2017-05-20T04:20:05.160Z,79.38
2017-05-20T04:21:15.113Z,79.86
2017-05-20T04:22:25.372Z,78.33
2017-05-20T04:23:35.006Z,79.57
2017-05-20T04:24:44.956Z,79.96
2017-05-20T04:25:54.591Z,80.72
2017-05-20T04:27:04.537Z,81.2
2017-05-20T04:28:13.862Z,81.01
2017-05-20T04:29:24.135Z,80.91
2017-05-20T04:30:34.467Z,80.53
2017-05-20T04:31:44.419Z,80.62
2017-05-20T04:32:54.693Z,81.2
2017-05-20T04:34:04.649Z,80.24
2017-05-20T04:35:14.294Z,80.91
2017-05-20T04:36:24.565Z,80.81
2017-05-20T04:37:34.832Z,80.62
2017-05-20T04:38:44.837Z,80.43
2017-05-20T04:39:55.117Z,80.81
2017-05-20T04:41:05.379Z,80.91
2017-05-20T04:42:15.333Z,80.53
2017-05-20T04:43:25.604Z,80.72
2017-05-20T04:44:35.882Z,80.81
2017-05-20T04:45:46.151Z,80.87
2017-05-20T04:46:55.471Z,81.01
2017-05-20T04:48:05.421Z,80.53
2017-05-20T04:49:15.379Z,81.96
2017-05-20T04:50:25.225Z,81.67
2017-05-20T04:51:34.861Z,81.29
2017-05-20T04:52:44.813Z,80.81
2017-05-20T04:53:54.762Z,80.87
2017-05-20T04:55:04.717Z,80.96
2017-05-20T04:56:14.979Z,80.68
2017-05-20T04:57:25.240Z,80.87
2017-05-20T04:58:35.504Z,80.2
2017-05-20T04:59:45.145Z,80.72
2017-05-20T05:00:55.101Z,80.2
2017-05-20T05:02:05.368Z,81.1
2017-05-20T05:03:15.005Z,81.15
2017-05-20T05:04:25.282Z,81.48
2017-05-20T05:05:35.548Z,82.06
2017-05-20T05:06:45.184Z,81.77
2017-05-20T05:07:54.822Z,82.06
2017-05-20T05:09:05.091Z,82.06
2017-05-20T05:10:14.727Z,80.72
2017-05-20T05:11:24.685Z,81.1
2017-05-20T05:12:34.943Z,81.01
2017-05-20T05:13:44.581Z,80.91
2017-05-20T05:14:54.845Z,81.2
2017-05-20T05:16:05.122Z,80.91
2017-05-20T05:17:15.393Z,80.81
2017-05-20T05:18:25.341Z,80.53
2017-05-20T05:19:35.611Z,80.62
2017-05-20T05:20:45.252Z,80.81
2017-05-20T05:21:54.888Z,80.91
2017-05-20T05:23:05.149Z,81.38
2017-05-20T05:24:15.105Z,81.67
2017-05-20T05:25:25.374Z,80.81
2017-05-20T05:26:35.650Z,80.09
2017-05-20T05:27:45.602Z,80.05
2017-05-20T05:28:55.871Z,80.05
2017-05-20T05:30:05.820Z,79.71
2017-05-20T05:31:15.776Z,79.71
2017-05-20T05:32:26.038Z,79.33
2017-05-20T05:33:35.354Z,79.23
2017-05-20T05:34:45.307Z,79.33
2017-05-20T05:35:55.573Z,79.99
2017-05-20T05:37:05.521Z,79.43
2017-05-20T05:38:15.475Z,79.71
2017-05-20T05:39:25.437Z,78.94
2017-05-20T05:40:35.742Z,78.94
2017-05-20T05:41:46.009Z,78.94
2017-05-20T05:42:56.273Z,78.37
2017-05-20T05:44:06.229Z,78.85
2017-05-20T05:45:16.187Z,78.75
2017-05-20T05:46:26.151Z,78.94
2017-05-20T05:47:36.420Z,78.75
2017-05-20T05:48:46.386Z,78.85
2017-05-20T05:49:56.657Z,78.85
2017-05-20T05:51:06.612Z,78.51
2017-05-20T05:52:16.886Z,78.09
2017-05-20T05:53:27.163Z,78.37
2017-05-20T05:54:37.118Z,78.79
2017-05-20T05:55:46.756Z,77.74
2017-05-20T05:56:57.030Z,78.13
2017-05-20T05:58:06.666Z,78.22
2017-05-20T05:59:16.307Z,78.13
2017-05-20T06:00:25.947Z,78.41
2017-05-20T06:01:36.210Z,78.31
2017-05-20T06:02:46.478Z,78.31
2017-05-20T06:03:56.425Z,78.85
2017-05-20T06:05:05.747Z,78.6
2017-05-20T06:06:15.705Z,78.31
2017-05-20T06:07:25.662Z,78.22
2017-05-20T06:08:35.926Z,78.41
2017-05-20T06:09:45.884Z,78.03
2017-05-20T06:10:55.517Z,77.94
2017-05-20T06:12:05.150Z,77.94
2017-05-20T06:13:14.806Z,77.94
2017-05-20T06:14:24.767Z,77.94
2017-05-20T06:15:35.035Z,77.65
2017-05-20T06:16:44.992Z,77.36
2017-05-20T06:17:55.258Z,77.26
2017-05-20T06:19:05.524Z,77.17
2017-05-20T06:20:15.480Z,77.36
2017-05-20T06:21:25.760Z,76.98
2017-05-20T06:22:35.711Z,76.88
2017-05-20T06:23:45.981Z,77.08
2017-05-20T06:24:55.932Z,76.12
2017-05-20T06:26:06.203Z,76.98
2017-05-20T06:27:16.151Z,77.84
2017-05-20T06:28:26.411Z,78.31
2017-05-20T06:29:36.689Z,78.28
2017-05-20T06:30:46.326Z,78.18
2017-05-20T06:31:56.008Z,77.99
2017-05-20T06:33:05.641Z,78.85
2017-05-20T06:34:15.592Z,78.56
2017-05-20T06:35:25.548Z,78.37
2017-05-20T06:36:35.504Z,78.47
2017-05-20T06:37:45.775Z,79.04
2017-05-20T06:38:55.730Z,78.94
2017-05-20T06:40:05.684Z,78.75
2017-05-20T06:41:15.949Z,77.89
2017-05-20T06:42:25.897Z,78.47
2017-05-20T06:43:35.850Z,78.66
2017-05-20T06:44:45.806Z,77.89
2017-05-20T06:45:56.071Z,77.99
2017-05-20T06:47:06.334Z,78.37
2017-05-20T06:48:16.289Z,78.28
2017-05-20T06:49:26.561Z,77.42
2017-05-20T06:50:36.830Z,77.61
2017-05-20T06:51:46.779Z,77.8
2017-05-20T06:52:56.097Z,77.8
2017-05-20T06:54:05.418Z,77.8
2017-05-20T06:55:15.062Z,78.28
2017-05-20T06:56:25.010Z,78.37
2017-05-20T06:57:34.962Z,78.09
2017-05-20T06:58:44.922Z,78.85
2017-05-20T06:59:55.191Z,77.99
2017-05-20T07:01:05.471Z,78.28
2017-05-20T07:02:15.422Z,78.37
2017-05-20T07:03:25.690Z,78.75
2017-05-20T07:04:35.958Z,79.43
2017-05-20T07:05:46.221Z,79.43
2017-05-20T07:06:56.192Z,79.43
2017-05-20T07:08:06.464Z,80.38
2017-05-20T07:09:16.106Z,79.71
2017-05-20T07:10:26.071Z,78.56
2017-05-20T07:11:36.024Z,78.85
2017-05-20T07:12:46.288Z,79.43
2017-05-20T07:13:56.246Z,80.28
2017-05-20T07:15:06.211Z,80.09
2017-05-20T07:16:16.163Z,79.04
2017-05-20T07:17:25.796Z,79.71
2017-05-20T07:18:36.062Z,79.43
2017-05-20T07:19:45.700Z,79.9
2017-05-20T07:20:55.969Z,79.99
2017-05-20T07:22:05.608Z,78.75
2017-05-20T07:23:15.245Z,78.47
2017-05-20T07:24:25.505Z,78.28
2017-05-20T07:25:35.771Z,78.56
2017-05-20T07:26:45.721Z,78.56
2017-05-20T07:27:55.990Z,78.94
2017-05-20T07:29:06.259Z,78.94
2017-05-20T07:30:16.213Z,78.66
2017-05-20T07:31:26.484Z,78.37
2017-05-20T07:32:36.753Z,80.28
2017-05-20T07:33:46.389Z,78.75
2017-05-20T07:34:55.710Z,78.85
2017-05-20T07:36:05.666Z,78.94
2017-05-20T07:37:15.330Z,78.66
2017-05-20T07:38:25.602Z,78.79
2017-05-20T07:39:35.868Z,78.31
2017-05-20T07:40:45.824Z,78.31
2017-05-20T07:41:55.463Z,78.41
2017-05-20T07:43:05.729Z,77.94
2017-05-20T07:44:16.003Z,78.31
2017-05-20T07:45:25.646Z,78.79
2017-05-20T07:46:35.910Z,78.03
2017-05-20T07:47:45.853Z,78.41
2017-05-20T07:48:55.494Z,78.31
2017-05-20T07:50:05.450Z,77.84
2017-05-20T07:51:15.994Z,77.17
2017-05-20T07:52:25.952Z,77.45
2017-05-20T07:53:36.216Z,77.21
2017-05-20T07:54:46.175Z,77.11
2017-05-20T07:55:55.817Z,75.68
2017-05-20T07:57:06.079Z,76.16
2017-05-20T07:58:16.348Z,75.87
2017-05-20T07:59:26.609Z,75.87
2017-05-20T08:00:36.564Z,76.64
2017-05-20T08:01:46.523Z,77.4
2017-05-20T08:02:56.788Z,77.11
2017-05-20T08:04:06.427Z,76.45
2017-05-20T08:05:16.386Z,74.91
2017-05-20T08:06:26.340Z,76.73
2017-05-20T08:07:36.296Z,76.35
2017-05-20T08:08:46.249Z,75.26
2017-05-20T08:09:56.205Z,75.83
2017-05-20T08:11:06.166Z,75.64
2017-05-20T08:12:16.431Z,76.03
2017-05-20T08:13:26.695Z,77.45
2017-05-20T08:14:36.961Z,77.45
2017-05-20T08:15:46.911Z,77.08
2017-05-20T08:16:56.872Z,78.13
2017-05-20T08:18:06.824Z,77.17
2017-05-20T08:19:16.460Z,77.17
2017-05-20T08:20:26.407Z,76.88
2017-05-20T08:21:36.677Z,77.45
2017-05-20T08:22:46.627Z,77.55
2017-05-20T08:23:56.272Z,78.99
2017-05-20T08:25:06.536Z,79.46
2017-05-20T08:26:15.868Z,78.51
2017-05-20T08:27:26.136Z,78.41
2017-05-20T08:28:36.091Z,77.94
2017-05-20T08:29:46.047Z,78.31
2017-05-20T08:30:55.379Z,77.65
2017-05-20T08:32:05.646Z,77.65
2017-05-20T08:33:15.596Z,77.08
2017-05-20T08:34:25.872Z,76.88
2017-05-20T08:35:36.154Z,75.83
2017-05-20T08:36:46.417Z,76.31
2017-05-20T08:37:56.368Z,76.4
2017-05-20T08:39:06.645Z,77.08
2017-05-20T08:40:16.083Z,76.88
2017-05-20T08:41:26.350Z,76.5
2017-05-20T08:42:36.292Z,76.69
2017-05-20T08:43:46.246Z,77.26
2017-05-20T08:44:56.515Z,76.03
2017-05-20T08:46:06.166Z,75.16
2017-05-20T08:47:16.119Z,75.83
2017-05-20T08:48:26.071Z,75.83
2017-05-20T08:49:36.342Z,76.12
2017-05-20T08:50:46.299Z,76.6
2017-05-20T08:51:56.564Z,76.4
2017-05-20T08:53:05.577Z,77.26
2017-05-20T08:54:15.223Z,77.55
2017-05-20T08:55:24.866Z,77.94
2017-05-20T08:56:35.138Z,78.03
2017-05-20T08:57:44.771Z,77.74
2017-05-20T08:58:55.036Z,77.74
2017-05-20T09:00:04.993Z,76.98
2017-05-20T09:01:14.949Z,76.69
2017-05-20T09:02:24.276Z,76.4
2017-05-20T09:03:34.235Z,76.4
2017-05-20T09:04:44.194Z,76.88
2017-05-20T09:05:54.149Z,76.88
2017-05-20T09:07:04.400Z,77.45
2017-05-20T09:08:14.358Z,77.36
2017-05-20T09:09:24.324Z,76.88
2017-05-20T09:10:34.284Z,76.98
2017-05-20T09:11:44.550Z,77.17
2017-05-20T09:12:54.502Z,76.88
2017-05-20T09:14:04.461Z,75.93
2017-05-20T09:15:14.736Z,75.83
2017-05-20T09:16:24.686Z,76.5
2017-05-20T09:17:34.953Z,77.08
2017-05-20T09:18:45.216Z,77.36
2017-05-20T09:19:55.505Z,77.84
2017-05-20T09:21:05.776Z,78.22
2017-05-20T09:22:16.046Z,77.08
2017-05-20T09:23:26.051Z,76.98
2017-05-20T09:24:36.313Z,77.17
2017-05-20T09:25:46.257Z,77.17
2017-05-20T09:26:55.893Z,76.98
2017-05-20T09:28:05.845Z,77.45
2017-05-20T09:29:15.802Z,76.98
2017-05-20T09:30:26.078Z,76.79
2017-05-20T09:31:36.349Z,77.21
2017-05-20T09:32:46.304Z,76.21
2017-05-20T09:33:56.624Z,76.54
2017-05-20T09:35:06.887Z,76.98
2017-05-20T09:36:16.528Z,76.88
2017-05-20T09:37:26.799Z,77.55
2017-05-20T09:38:37.074Z,77.17
2017-05-20T09:39:47.022Z,76.6
2017-05-20T09:40:56.978Z,77.21
2017-05-20T09:42:06.930Z,77.08
2017-05-20T09:43:16.887Z,77.4
2017-05-20T09:44:27.160Z,78.26
2017-05-20T09:45:37.428Z,77.97
2017-05-20T09:46:47.376Z,78.83
2017-05-20T09:47:57.330Z,78.55
2017-05-20T09:49:07.291Z,78.74
2017-05-20T09:50:17.573Z,78.93
2017-05-20T09:51:27.534Z,78.89
2017-05-20T09:52:37.482Z,79.36
2017-05-20T09:53:47.439Z,79.46
2017-05-20T09:54:57.393Z,78.22
2017-05-20T09:56:07.662Z,77.94
2017-05-20T09:57:17.927Z,77.55
2017-05-20T09:58:27.888Z,79.36
2017-05-20T09:59:38.156Z,80.22
2017-05-20T10:00:48.099Z,80.41
2017-05-20T10:01:58.362Z,80.99
2017-05-20T10:03:08.636Z,81.76
2017-05-20T10:04:18.905Z,81.76
2017-05-20T10:05:28.854Z,81.37
2017-05-20T10:06:38.803Z,81.37
2017-05-20T10:07:49.062Z,82.14
2017-05-20T10:08:58.381Z,81.18
2017-05-20T10:10:08.646Z,81.47
2017-05-20T10:11:18.918Z,80.8
2017-05-20T10:12:29.187Z,81.18
2017-05-20T10:13:38.829Z,80.99
2017-05-20T10:14:48.792Z,81.37
2017-05-20T10:15:58.754Z,81.09
2017-05-20T10:17:08.703Z,80.41
2017-05-20T10:18:18.963Z,80.74
2017-05-20T10:19:28.601Z,80.61
2017-05-20T10:20:38.868Z,80.74
2017-05-20T10:21:48.817Z,80.46
2017-05-20T10:22:58.773Z,80.55
2017-05-20T10:24:09.044Z,80.27
2017-05-20T10:25:18.989Z,81.03
2017-05-20T10:26:28.628Z,81.03
2017-05-20T10:27:38.899Z,80.93
2017-05-20T10:28:48.858Z,80.93
2017-05-20T10:29:58.817Z,81.03
2017-05-20T10:31:08.764Z,81.6
2017-05-20T10:32:18.721Z,81.03
2017-05-20T10:33:28.989Z,80.93
2017-05-20T10:34:38.831Z,79.98
2017-05-20T10:35:48.782Z,79.98
2017-05-20T10:36:58.734Z,81.03
2017-05-20T10:38:08.383Z,80.46
2017-05-20T10:39:18.023Z,80.9
2017-05-20T10:40:27.982Z,80.7
2017-05-20T10:41:38.244Z,80.13
2017-05-20T10:42:48.201Z,80.32
2017-05-20T10:43:57.839Z,80.51
2017-05-20T10:45:07.788Z,80.7
2017-05-20T10:46:17.746Z,80.99
2017-05-20T10:47:27.702Z,82
2017-05-20T10:48:37.661Z,82.29
2017-05-20T10:49:47.302Z,81.24
2017-05-20T10:50:56.938Z,81.33
2017-05-20T10:52:06.891Z,82.48
2017-05-20T10:53:16.847Z,82.38
2017-05-20T10:54:26.802Z,81.33
2017-05-20T10:55:37.064Z,81.33
2017-05-20T10:56:46.394Z,82.29
2017-05-20T10:57:56.341Z,82.95
2017-05-20T10:59:06.292Z,82.09
2017-05-20T11:00:15.939Z,81.33
2017-05-20T11:01:25.898Z,82.09
2017-05-20T11:02:36.170Z,82.48
2017-05-20T11:03:46.506Z,82.19
2017-05-20T11:04:56.466Z,82.48
2017-05-20T11:06:06.108Z,82.86
2017-05-20T11:07:16.380Z,83.24
2017-05-20T11:08:26.334Z,83.24
2017-05-20T11:09:36.599Z,82.57
2017-05-20T11:10:46.237Z,82.29
2017-05-20T11:11:56.187Z,82.29
2017-05-20T11:13:05.882Z,83.43
2017-05-20T11:14:16.146Z,82.67
2017-05-20T11:15:26.407Z,82.48
2017-05-20T11:16:36.673Z,82.57
2017-05-20T11:17:46.628Z,82.09
2017-05-20T11:18:56.898Z,82
2017-05-20T11:20:07.163Z,82.67
2017-05-20T11:21:17.112Z,82.95
2017-05-20T11:22:27.378Z,82.38
2017-05-20T11:23:37.648Z,82.76
2017-05-20T11:24:47.599Z,82.29
2017-05-20T11:25:57.549Z,82.71
2017-05-20T11:27:07.500Z,84.1
2017-05-20T11:28:17.760Z,85.25
2017-05-20T11:29:28.062Z,85.63
2017-05-20T11:30:38.328Z,86.1
2017-05-20T11:31:48.593Z,86.49
2017-05-20T11:32:58.863Z,85.91
2017-05-20T11:34:08.817Z,85.05
2017-05-20T11:35:18.456Z,85.63
2017-05-20T11:36:28.405Z,85.15
2017-05-20T11:37:38.672Z,85.25
2017-05-20T11:38:48.636Z,85.63
2017-05-20T11:39:58.595Z,84.48
2017-05-20T11:41:08.865Z,84.67
2017-05-20T11:42:19.130Z,84.33
2017-05-20T11:43:28.455Z,84.48
2017-05-20T11:44:38.723Z,84.05
2017-05-20T11:45:48.676Z,84.48
2017-05-20T11:46:58.633Z,84.52
2017-05-20T11:48:08.271Z,83.76
2017-05-20T11:49:18.226Z,83.76
2017-05-20T11:50:28.490Z,83.57
2017-05-20T11:51:38.440Z,83.67
2017-05-20T11:52:48.709Z,84.43
2017-05-20T11:53:58.353Z,83.67
2017-05-20T11:55:08.617Z,83.38
2017-05-20T11:56:18.569Z,83.67
2017-05-20T11:57:28.831Z,82.9
2017-05-20T11:58:38.783Z,82.9
2017-05-20T11:59:49.059Z,82.61
2017-05-20T12:00:59.327Z,82.04
2017-05-20T12:02:09.589Z,80.41
2017-05-20T12:03:19.545Z,82.52
2017-05-20T12:04:28.874Z,83.76
2017-05-20T12:05:39.145Z,83.95
2017-05-20T12:06:49.097Z,83.18
2017-05-20T12:07:58.741Z,83.86
2017-05-20T12:09:09.006Z,83.67
2017-05-20T12:10:19.279Z,83.67
2017-05-20T12:11:29.235Z,84.05
2017-05-20T12:12:39.496Z,83.47
2017-05-20T12:13:49.141Z,84.52
2017-05-20T12:14:58.781Z,84.91
2017-05-20T12:16:08.730Z,84.33
2017-05-20T12:17:18.999Z,83.86
2017-05-20T12:18:28.633Z,84.62
2017-05-20T12:19:40.525Z,84.43
2017-05-20T12:20:50.796Z,84.52
2017-05-20T12:22:01.065Z,85.19
2017-05-20T12:23:10.700Z,85.19
2017-05-20T12:24:20.652Z,85.38
2017-05-20T12:25:30.604Z,85.48
2017-05-20T12:26:40.556Z,85.38
2017-05-20T12:27:50.825Z,84.72
2017-05-20T12:29:00.782Z,85.1
2017-05-20T12:30:10.734Z,86.91
2017-05-20T12:31:21.000Z,86.34
2017-05-20T12:32:30.951Z,87.54
2017-05-20T12:33:40.912Z,87.48
2017-05-20T12:34:51.178Z,86.63
2017-05-20T12:36:00.821Z,86.39
2017-05-20T12:37:11.087Z,86.39
2017-05-20T12:38:21.039Z,85.72
2017-05-20T12:39:30.670Z,86.3
2017-05-20T12:40:40.618Z,86.68
2017-05-20T12:41:50.889Z,86.58
2017-05-20T12:43:00.845Z,85.91
2017-05-20T12:44:11.119Z,87.01
2017-05-20T12:45:21.112Z,87.39
2017-05-20T12:46:31.379Z,86.63
2017-05-20T12:47:41.649Z,86.53
2017-05-20T12:48:51.616Z,85.29
2017-05-20T12:50:01.253Z,84.91
2017-05-20T12:51:11.210Z,85.29
2017-05-20T12:52:21.167Z,86.24
2017-05-20T12:53:30.806Z,86.53
2017-05-20T12:54:41.077Z,85.48
2017-05-20T12:55:51.343Z,86.43
2017-05-20T12:57:00.671Z,85.96
2017-05-20T12:58:10.317Z,86.15
2017-05-20T12:59:20.585Z,85.96
2017-05-20T13:00:30.536Z,85.19
2017-05-20T13:01:40.805Z,85
2017-05-20T13:02:51.072Z,85.77
2017-05-20T13:04:01.336Z,85.67
2017-05-20T13:05:11.286Z,85.91
2017-05-20T13:06:21.551Z,85.29
2017-05-20T13:07:31.813Z,85.86
2017-05-20T13:08:41.770Z,85.15
2017-05-20T13:09:51.724Z,84.86
2017-05-20T13:11:01.370Z,85.53
2017-05-20T13:12:11.007Z,86.2
2017-05-20T13:13:20.698Z,86.68
2017-05-20T13:14:30.663Z,86.2
2017-05-20T13:15:40.629Z,85.34
2017-05-20T13:16:50.898Z,85.15
2017-05-20T13:18:00.847Z,85.91
2017-05-20T13:19:11.110Z,85.44
2017-05-20T13:20:21.072Z,85.34
2017-05-20T13:21:31.022Z,85.05
2017-05-20T13:22:41.283Z,85.15
2017-05-20T13:23:51.553Z,85.05
2017-05-20T13:25:01.506Z,85.91
2017-05-20T13:26:11.778Z,86.01
2017-05-20T13:27:22.054Z,86.01
2017-05-20T13:28:32.323Z,86.58
2017-05-20T13:29:42.592Z,86.01
2017-05-20T13:30:52.855Z,86.49
2017-05-20T13:32:03.125Z,86.3
2017-05-20T13:33:12.763Z,85.44
2017-05-20T13:34:23.035Z,86.2
2017-05-20T13:35:33.298Z,86.39
2017-05-20T13:36:43.575Z,86.2
2017-05-20T13:37:53.533Z,85.91
2017-05-20T13:39:03.497Z,86.39
2017-05-20T13:40:13.459Z,87.35
2017-05-20T13:41:23.409Z,86.87
2017-05-20T13:42:33.047Z,86.2
2017-05-20T13:43:43.309Z,86.68
2017-05-20T13:44:53.617Z,86.2
2017-05-20T13:46:03.572Z,86.96
2017-05-20T13:47:13.527Z,86.68
2017-05-20T13:48:23.479Z,86.77
2017-05-20T13:49:33.741Z,87.15
2017-05-20T13:50:43.380Z,86.87
2017-05-20T13:51:53.329Z,86.49
2017-05-20T13:53:02.659Z,87.25
2017-05-20T13:54:12.610Z,86.96
2017-05-20T13:55:22.880Z,86.39
2017-05-20T13:56:33.138Z,86.77
2017-05-20T13:57:43.096Z,85.91
2017-05-20T13:58:53.372Z,86.39
2017-05-20T14:00:03.330Z,86.68
2017-05-20T14:01:13.607Z,86.3
2017-05-20T14:02:23.562Z,86.43
2017-05-20T14:03:33.837Z,86.34
2017-05-20T14:04:44.107Z,85.19
2017-05-20T14:05:54.374Z,86.15
2017-05-20T14:07:04.330Z,85.29
2017-05-20T14:08:14.277Z,84.81
2017-05-20T14:09:24.535Z,85.48
2017-05-20T14:10:34.799Z,85.19
2017-05-20T14:11:44.836Z,85.96
2017-05-20T14:12:54.797Z,86.53
2017-05-20T14:14:04.438Z,85.29
2017-05-20T14:15:14.388Z,86.53
2017-05-20T14:16:24.656Z,86.34
2017-05-20T14:17:34.922Z,85.96
2017-05-20T14:18:44.250Z,85.67
2017-05-20T14:19:54.203Z,85.38
2017-05-20T14:21:03.841Z,86.63
2017-05-20T14:22:14.110Z,86.43
2017-05-20T14:23:24.375Z,86.63
2017-05-20T14:24:34.323Z,85.67
2017-05-20T14:25:44.274Z,85.96
2017-05-20T14:26:54.231Z,85.96
2017-05-20T14:28:04.502Z,85.96
2017-05-20T14:29:14.864Z,85.38
2017-05-20T14:30:25.140Z,84.81
2017-05-20T14:31:35.089Z,84.05
2017-05-20T14:32:45.045Z,83.18
2017-05-20T14:33:55.311Z,84.43
2017-05-20T14:35:04.953Z,84.72
2017-05-20T14:36:15.217Z,84.56
2017-05-20T14:37:25.169Z,83.99
2017-05-20T14:38:35.441Z,84.09
2017-05-20T14:39:45.399Z,83.8
2017-05-20T14:40:55.356Z,83.9
2017-05-20T14:42:05.313Z,84.47
2017-05-20T14:43:15.267Z,83.13
2017-05-20T14:44:24.914Z,83.9
2017-05-20T14:45:34.868Z,83.7
2017-05-20T14:46:44.823Z,83.8
2017-05-20T14:47:54.772Z,83.99
2017-05-20T14:49:04.417Z,84.47
2017-05-20T14:50:14.687Z,83.47
2017-05-20T14:51:24.634Z,83.51
2017-05-20T14:52:34.587Z,83.8
2017-05-20T14:53:44.539Z,83.86
2017-05-20T14:54:54.490Z,83.38
2017-05-20T14:56:04.134Z,83.7
2017-05-20T14:57:13.831Z,83.9
2017-05-20T14:58:23.789Z,83.8
2017-05-20T14:59:33.434Z,83.9
2017-05-20T15:00:43.695Z,84.38
2017-05-20T15:01:53.963Z,83.99
2017-05-20T15:03:03.607Z,83.99
2017-05-20T15:04:13.562Z,83.7
2017-05-20T15:05:23.832Z,83.51